createdAt,value
2022-08-02T00:01:07.891Z,96.80
2022-08-02T00:06:11.479Z,96.90
2022-08-02T00:11:14.961Z,97.00
2022-08-02T00:16:19.939Z,97.30
2022-08-02T00:21:40.778Z,97.60
2022-08-02T00:26:44.607Z,97.80
2022-08-02T00:31:49.728Z,97.90
2022-08-02T00:36:53.510Z,97.80
2022-08-02T00:41:57.116Z,97.80
2022-08-02T00:47:02.495Z,97.80
2022-08-02T00:52:06.320Z,97.90
2022-08-02T00:57:09.946Z,97.90
2022-08-02T01:02:15.498Z,97.90
2022-08-02T01:07:19.467Z,97.80
2022-08-02T01:12:22.911Z,97.60
2022-08-02T01:17:30.723Z,97.40
2022-08-02T01:23:00.637Z,97.30
2022-08-02T01:28:16.338Z,97.30
2022-08-02T01:33:20.344Z,97.00
2022-08-02T01:38:25.222Z,96.90
2022-08-02T01:43:31.449Z,96.70
2022-08-02T01:48:35.732Z,96.70
2022-08-02T01:53:39.469Z,96.70
2022-08-02T01:58:45.312Z,96.60
2022-08-02T02:03:49.983Z,96.60
2022-08-02T02:08:54.197Z,96.70
2022-08-02T02:13:59.494Z,96.70
2022-08-02T02:19:03.776Z,96.70
2022-08-02T02:24:09.108Z,96.80
2022-08-02T02:29:17.803Z,96.90
2022-08-02T02:34:26.919Z,97.00
2022-08-02T02:39:32.073Z,97.00
2022-08-02T02:44:37.671Z,97.10
2022-08-02T02:49:42.079Z,97.20
2022-08-02T02:54:46.842Z,97.30
2022-08-02T02:59:52.227Z,97.70
2022-08-02T03:04:58.156Z,97.70
2022-08-02T03:10:02.407Z,97.50
2022-08-02T03:15:09.621Z,97.60
2022-08-02T03:20:14.528Z,97.50
2022-08-02T03:25:18.749Z,97.40
2022-08-02T03:30:25.240Z,97.30
2022-08-02T03:35:29.063Z,97.10
2022-08-02T03:40:32.918Z,97.10
2022-08-02T03:45:38.442Z,97.10
2022-08-02T03:50:42.451Z,97.20
2022-08-02T03:55:46.174Z,97.20
2022-08-02T04:00:51.515Z,97.30
2022-08-02T04:06:03.217Z,97.40
2022-08-02T04:11:25.464Z,97.50
2022-08-02T04:16:39.207Z,97.50
2022-08-02T04:21:51.612Z,97.40
2022-08-02T04:26:58.098Z,97.50
2022-08-02T04:32:14.351Z,97.50
2022-08-02T04:37:18.255Z,97.60
2022-08-02T04:42:22.592Z,97.60
2022-08-02T04:48:02.313Z,97.60
2022-08-02T04:52:51.162Z,97.40
2022-08-02T04:57:58.279Z,97.10
2022-08-02T05:03:03.453Z,97.10
2022-08-02T05:08:07.032Z,96.90
2022-08-02T05:13:10.354Z,96.60
2022-08-02T05:18:15.316Z,96.20
2022-08-02T05:23:19.209Z,95.80
2022-08-02T05:28:22.554Z,95.50
2022-08-02T05:33:27.564Z,95.10
2022-08-02T05:38:39.932Z,94.80
2022-08-02T05:43:45.803Z,94.10
2022-08-02T05:48:50.808Z,93.70
2022-08-02T05:54:02.375Z,93.50
2022-08-02T05:59:06.252Z,92.80
2022-08-02T06:04:11.566Z,92.30
2022-08-02T06:09:16.765Z,91.70
2022-08-02T06:14:30.087Z,91.60
2022-08-02T06:19:51.740Z,91.20
2022-08-02T06:24:57.180Z,91.00
2022-08-02T06:30:00.834Z,91.00
2022-08-02T06:35:06.388Z,90.70
2022-08-02T06:40:13.186Z,90.50
2022-08-02T06:45:16.820Z,89.90
2022-08-02T06:50:21.903Z,89.50
2022-08-02T06:55:25.281Z,88.80
2022-08-02T07:00:28.751Z,88.20
2022-08-02T07:05:33.537Z,88.00
2022-08-02T07:10:37.139Z,87.80
2022-08-02T07:15:40.485Z,87.60
2022-08-02T07:20:54.115Z,87.40
2022-08-02T07:26:02.411Z,87.20
2022-08-02T07:31:09.383Z,86.20
2022-08-02T07:36:22.318Z,84.70
2022-08-02T07:41:26.865Z,83.40
2022-08-02T07:46:30.458Z,82.90
2022-08-02T07:51:36.392Z,82.90
2022-08-02T07:56:40.110Z,83.10
2022-08-02T08:01:45.024Z,83.20
2022-08-02T08:06:52.982Z,82.80
2022-08-02T08:11:56.541Z,82.60
2022-08-02T08:16:59.952Z,82.50
2022-08-02T08:22:06.460Z,82.30
2022-08-02T08:27:15.024Z,82.20
2022-08-02T08:32:18.950Z,81.40
2022-08-02T08:37:24.483Z,81.00
2022-08-02T08:42:28.474Z,80.80
2022-08-02T08:47:35.559Z,80.10
2022-08-02T08:52:42.582Z,79.80
2022-08-02T08:57:46.353Z,78.60
2022-08-02T09:02:50.081Z,77.90
2022-08-02T09:07:55.809Z,77.10
2022-08-02T09:13:43.514Z,76.80
2022-08-02T09:18:32.302Z,76.10
2022-08-02T09:23:37.493Z,75.70
2022-08-02T09:29:48.569Z,75.30
2022-08-02T09:36:11.636Z,75.20
2022-08-02T09:48:54.015Z,74.30
2022-08-02T10:06:43.762Z,73.90
2022-08-02T10:12:12.203Z,73.90
2022-08-02T10:36:49.046Z,72.30
2022-08-02T11:07:47.906Z,71.70
2022-08-02T11:14:06.250Z,69.60
2022-08-02T11:25:54.459Z,69.50
2022-08-02T11:30:58.573Z,68.90
2022-08-02T11:36:04.264Z,68.50
2022-08-02T11:41:09.848Z,67.70
2022-08-02T11:46:15.015Z,66.80
2022-08-02T11:51:19.860Z,66.80
2022-08-02T11:56:27.806Z,66.30
2022-08-02T12:01:31.487Z,66.10
2022-08-02T12:06:40.023Z,66.10
2022-08-02T12:11:43.550Z,65.50
2022-08-02T12:17:04.168Z,65.00
2022-08-02T12:22:10.391Z,64.50
2022-08-02T12:27:29.671Z,64.30
2022-08-02T12:32:32.887Z,64.50
2022-08-02T12:37:38.290Z,64.20
2022-08-02T12:42:47.323Z,63.90
2022-08-02T12:47:52.211Z,63.70
2022-08-02T12:53:07.269Z,63.10
2022-08-02T12:58:11.067Z,62.40
2022-08-02T13:04:09.754Z,62.10
2022-08-02T13:08:39.827Z,61.80
2022-08-02T13:13:43.427Z,61.30
2022-08-02T13:18:47.423Z,61.10
2022-08-02T13:23:54.693Z,61.10
2022-08-02T13:28:58.651Z,60.80
2022-08-02T13:34:02.268Z,60.70
2022-08-02T13:39:07.279Z,60.40
2022-08-02T13:44:11.161Z,60.20
2022-08-02T13:49:18.880Z,60.20
2022-08-02T13:54:24.826Z,60.00
2022-08-02T13:59:56.626Z,59.70
2022-08-02T14:04:52.178Z,59.40
2022-08-02T14:09:56.885Z,59.20
2022-08-02T14:15:00.478Z,58.90
2022-08-02T14:25:09.848Z,57.50
2022-08-02T14:35:17.357Z,56.90
2022-08-02T14:40:27.872Z,56.80
2022-08-02T14:45:39.764Z,56.60
2022-08-02T14:50:44.578Z,56.00
2022-08-02T14:55:50.172Z,55.80
2022-08-02T15:00:53.621Z,55.90
2022-08-02T15:05:57.436Z,56.10
2022-08-02T15:11:02.347Z,55.40
2022-08-02T15:16:05.717Z,55.30
2022-08-02T15:21:40.212Z,55.00
2022-08-02T15:26:34.676Z,54.60
2022-08-02T15:31:41.731Z,54.50
2022-08-02T15:36:45.471Z,54.60
2022-08-02T15:41:50.437Z,54.70
2022-08-02T15:46:54.462Z,54.70
2022-08-02T15:51:57.801Z,54.50
2022-08-02T15:57:02.665Z,54.30
2022-08-02T16:02:06.991Z,54.00
2022-08-02T16:07:10.450Z,53.80
2022-08-02T16:12:16.072Z,53.70
2022-08-02T16:17:49.105Z,53.60
2022-08-02T16:22:44.639Z,53.60
2022-08-02T16:28:06.423Z,53.50
2022-08-02T16:33:11.241Z,53.60
2022-08-02T16:38:14.374Z,53.60
2022-08-02T16:43:19.241Z,53.50
2022-08-02T16:48:22.662Z,53.50
2022-08-02T16:53:36.801Z,53.60
2022-08-02T16:58:44.905Z,53.40
2022-08-02T17:03:56.040Z,53.40
2022-08-02T17:09:00.613Z,53.60
2022-08-02T17:19:08.980Z,69.20
2022-08-02T17:24:12.311Z,54.10
2022-08-02T17:29:18.012Z,54.20
2022-08-02T17:34:25.113Z,54.20
2022-08-02T17:39:33.877Z,53.70
2022-08-02T17:44:38.489Z,53.00
2022-08-02T17:49:44.233Z,52.40
2022-08-02T17:54:52.294Z,52.00
2022-08-02T18:00:03.690Z,51.70
2022-08-02T18:05:13.244Z,51.40
2022-08-02T18:10:18.738Z,51.00
2022-08-02T18:15:23.002Z,51.00
2022-08-02T18:20:27.703Z,51.30
2022-08-02T18:25:37.359Z,51.30
2022-08-02T18:30:47.529Z,51.20
2022-08-02T18:35:55.226Z,51.40
2022-08-02T18:41:02.796Z,51.60
2022-08-02T18:46:15.401Z,52.00
2022-08-02T18:51:20.919Z,52.20
2022-08-02T18:56:24.995Z,52.80
2022-08-02T19:01:32.036Z,53.60
2022-08-02T19:06:39.584Z,54.50
2022-08-02T19:11:47.383Z,54.70
2022-08-02T19:16:51.539Z,55.10
2022-08-02T19:22:18.051Z,56.30
2022-08-02T19:27:32.027Z,57.70
2022-08-02T19:32:42.091Z,58.90
2022-08-02T19:38:08.620Z,59.60
2022-08-02T19:44:26.416Z,59.80
2022-08-02T19:48:36.194Z,60.00
2022-08-02T19:53:47.620Z,60.50
2022-08-02T19:58:53.648Z,61.30
2022-08-02T20:03:56.970Z,62.40
2022-08-02T20:09:01.812Z,63.30
2022-08-02T20:14:05.777Z,63.50
2022-08-02T20:19:09.230Z,64.20
2022-08-02T20:24:13.954Z,64.80
2022-08-02T20:29:42.524Z,65.20
2022-08-02T20:34:40.738Z,65.70
2022-08-02T20:39:45.402Z,66.20
2022-08-02T20:44:48.790Z,66.80
2022-08-02T20:50:05.974Z,67.50
2022-08-02T20:55:17.170Z,68.10
2022-08-02T21:00:20.875Z,68.80
2022-08-02T21:05:44.002Z,69.60
2022-08-02T21:10:50.483Z,70.30
2022-08-02T21:15:57.363Z,71.20
2022-08-02T21:21:03.350Z,72.00
2022-08-02T21:26:09.153Z,72.90
2022-08-02T21:31:13.533Z,73.60
2022-08-02T21:36:16.964Z,74.60
2022-08-02T21:41:21.710Z,75.80
2022-08-02T21:46:25.068Z,77.10
2022-08-02T21:51:34.191Z,78.10
2022-08-02T21:56:39.195Z,78.50
2022-08-02T22:01:52.354Z,79.20
2022-08-02T22:06:56.810Z,80.10
2022-08-02T22:12:01.477Z,81.30
2022-08-02T22:17:08.426Z,82.10
2022-08-02T22:22:12.551Z,82.50
2022-08-02T22:27:17.040Z,83.20
2022-08-02T22:32:37.137Z,84.00
2022-08-02T22:38:16.390Z,84.80
2022-08-02T22:43:05.795Z,85.80
2022-08-02T22:48:09.128Z,86.70
2022-08-02T22:53:12.701Z,87.50
2022-08-02T22:58:23.069Z,88.40
2022-08-02T23:03:26.573Z,89.50
2022-08-02T23:08:29.925Z,90.10
2022-08-02T23:13:34.658Z,90.50
2022-08-02T23:18:55.334Z,90.90
2022-08-02T23:23:58.509Z,91.40
2022-08-02T23:29:03.233Z,91.80
2022-08-02T23:34:06.732Z,92.00
2022-08-02T23:39:10.288Z,92.40
2022-08-02T23:44:15.463Z,92.60
2022-08-02T23:49:19.219Z,93.20
2022-08-02T23:54:22.679Z,93.20
2022-08-02T23:59:27.238Z,93.50
